Time;durP1;ratioP1;P1;durP2;ratioP2;P2;SDS_P1;SDS_P2;PMS_P1;PMS_P2;Temp;Humidity;BMP_temperature;BMP_pressure;BME280_temperature;BME280_humidity;BME280_pressure;Samples;Min_cycle;Max_cycle;Signal;HPM_P1;HPM_P2
2022/04/26 03:36:08;;;;;;;0.40;0.40;;;;;;;10.71;67.30;100066.35;102884;1284;139479;-68
2022/04/26 03:38:45;;;;;;;0.50;0.50;;;;;;;10.59;67.42;100067.77;103637;1279;109996;-67
2022/04/26 03:41:14;;;;;;;0.50;0.40;;;;;;;10.53;67.66;100068.84;103421;1278;141479;-69
2022/04/26 03:43:42;;;;;;;0.40;0.40;;;;;;;10.48;67.55;100070.45;103425;1278;108937;-68
2022/04/26 03:46:10;;;;;;;0.50;0.50;;;;;;;10.36;67.84;100078.09;103316;1278;138797;-67
2022/04/26 03:48:38;;;;;;;0.50;0.50;;;;;;;10.27;68.09;100074.77;103438;1280;95559;-68
2022/04/26 03:51:06;;;;;;;0.50;0.50;;;;;;;10.18;68.20;100078.77;103398;1279;109907;-68
2022/04/26 03:53:34;;;;;;;0.50;0.50;;;;;;;10.11;68.27;100084.30;103395;1279;139004;-67
2022/04/26 03:56:02;;;;;;;0.50;0.40;;;;;;;10.10;68.39;100082.02;103398;1278;108838;-67
2022/04/26 03:58:30;;;;;;;0.50;0.40;;;;;;;10.09;68.37;100084.89;103506;1279;138390;-68
2022/04/26 04:00:59;;;;;;;0.50;0.40;;;;;;;10.03;68.33;100088.44;103447;1279;95994;-69
2022/04/26 04:03:27;;;;;;;0.50;0.40;;;;;;;9.96;68.81;100089.67;103622;1279;109705;-68
2022/04/26 04:05:55;;;;;;;0.50;0.50;;;;;;;10.00;68.97;100093.48;103459;1278;138847;-67
2022/04/26 04:08:23;;;;;;;0.50;0.40;;;;;;;10.13;68.86;100097.19;103482;1278;107843;-67
2022/04/26 04:10:51;;;;;;;0.50;0.40;;;;;;;10.18;68.87;100096.50;103351;1277;138411;-68
2022/04/26 04:13:20;;;;;;;0.50;0.50;;;;;;;10.21;68.72;100094.65;104470;1278;483678;-68
2022/04/26 04:15:48;;;;;;;0.50;0.50;;;;;;;10.25;68.79;100103.05;103402;1279;139715;-66
2022/04/26 04:21:03;;;;;;;0.50;0.40;;;;;;;10.35;68.36;100106.66;103384;1279;109494;-68
2022/04/26 04:23:35;;;;;;;0.50;0.50;;;;;;;10.40;68.27;100108.48;103338;1278;138341;-66
2022/04/26 04:26:03;;;;;;;0.50;0.50;;;;;;;10.46;68.30;100110.98;103841;1277;95167;-67
2022/04/26 04:28:34;;;;;;;0.50;0.40;;;;;;;10.47;68.04;100112.52;103251;1278;138838;-67
2022/04/26 04:31:02;;;;;;;0.50;0.40;;;;;;;10.43;68.09;100116.56;103536;1278;99443;-69
2022/04/26 04:33:31;;;;;;;0.50;0.40;;;;;;;10.43;68.16;100117.27;103524;1277;108780;-67
2022/04/26 04:36:00;;;;;;;0.50;0.50;;;;;;;10.44;68.06;100121.17;103292;1277;138837;-67
2022/04/26 04:38:28;;;;;;;0.50;0.40;;;;;;;10.41;68.07;100123.02;103439;1277;95480;-68
2022/04/26 04:40:56;;;;;;;0.50;0.40;;;;;;;10.39;68.16;100125.21;103331;1279;139635;-67
2022/04/26 04:43:24;;;;;;;0.40;0.40;;;;;;;10.43;68.22;100128.99;103651;1278;99394;-68
2022/04/26 04:45:52;;;;;;;0.50;0.40;;;;;;;10.37;68.11;100133.95;103457;1278;138300;-68
2022/04/26 04:48:21;;;;;;;0.50;0.40;;;;;;;10.31;68.44;100135.33;103541;1278;95865;-67
2022/04/26 04:50:49;;;;;;;0.50;0.40;;;;;;;10.41;68.50;100135.79;103619;1277;95739;-69
2022/04/26 04:53:19;;;;;;;0.50;0.40;;;;;;;10.44;68.07;100142.09;103518;1278;139426;-66
2022/04/26 04:55:47;;;;;;;0.50;0.40;;;;;;;10.37;68.41;100140.87;103807;1280;99657;-68
2022/04/26 04:58:15;;;;;;;0.50;0.40;;;;;;;10.41;68.26;100145.91;103466;1278;138681;-68
2022/04/26 05:00:43;;;;;;;0.50;0.40;;;;;;;10.34;68.14;100146.80;103415;1278;96780;-69
2022/04/26 05:03:11;;;;;;;0.40;0.40;;;;;;;10.27;68.15;100146.79;104098;1277;96604;-69
2022/04/26 05:05:39;;;;;;;0.50;0.40;;;;;;;10.27;68.34;100153.73;103352;1277;138910;-66
2022/04/26 05:08:10;;;;;;;0.50;0.40;;;;;;;10.25;68.58;100152.39;103572;1277;99397;-68
2022/04/26 05:10:38;;;;;;;0.50;0.40;;;;;;;10.30;68.63;100154.70;103513;1278;139647;-67
2022/04/26 05:13:06;;;;;;;0.50;0.40;;;;;;;10.35;68.58;100154.76;103449;1281;95250;-68
2022/04/26 05:15:37;;;;;;;0.40;0.40;;;;;;;10.35;68.49;100154.40;103566;1279;95122;-65
2022/04/26 05:18:06;;;;;;;0.40;0.40;;;;;;;10.31;68.49;100155.74;103558;1278;138234;-66
2022/04/26 05:20:33;;;;;;;0.40;0.40;;;;;;;10.31;68.71;100157.52;103760;1280;98390;-66
2022/04/26 05:25:48;;;;;;;0.50;0.50;;;;;;;10.27;68.96;100165.09;103479;1277;95443;-67
2022/04/26 05:28:16;;;;;;;0.40;0.30;;;;;;;10.31;68.93;100166.56;103204;1281;139026;-67
2022/04/26 05:30:53;;;;;;;0.40;0.40;;;;;;;10.35;68.78;100163.98;103475;1280;109671;-67
2022/04/26 05:33:22;;;;;;;0.50;0.50;;;;;;;10.30;68.85;100169.41;103637;1277;98843;-66
2022/04/26 05:35:50;;;;;;;0.50;0.40;;;;;;;10.33;68.84;100171.28;103755;1278;139307;-65
2022/04/26 05:38:18;;;;;;;0.50;0.40;;;;;;;10.33;68.67;100174.69;103833;1278;95604;-64
2022/04/26 05:40:48;;;;;;;0.40;0.40;;;;;;;10.28;68.55;100175.88;103568;1277;138887;-66
2022/04/26 05:43:16;;;;;;;0.50;0.40;;;;;;;10.18;68.69;100179.00;103613;1278;109656;-66
2022/04/26 05:45:44;;;;;;;0.40;0.40;;;;;;;10.11;68.99;100180.79;103776;1278;99509;-65
2022/04/26 05:48:13;;;;;;;0.50;0.40;;;;;;;10.08;68.98;100182.48;103467;1277;139032;-65
2022/04/26 05:50:42;;;;;;;0.40;0.40;;;;;;;10.09;69.05;100186.34;103783;1278;95241;-66
2022/04/26 05:53:10;;;;;;;0.50;0.40;;;;;;;10.09;68.97;100188.48;103382;1277;138536;-66
2022/04/26 05:55:40;;;;;;;0.50;0.40;;;;;;;10.09;69.20;100192.92;103543;1278;109783;-66
2022/04/26 05:58:09;;;;;;;0.40;0.30;;;;;;;10.20;68.97;100193.48;103649;1277;139167;-66
2022/04/26 06:00:37;;;;;;;0.50;0.40;;;;;;;10.20;68.87;100197.21;103498;1277;108933;-65
2022/04/26 06:03:05;;;;;;;0.40;0.40;;;;;;;10.24;68.73;100200.13;103501;1277;95921;-66
2022/04/26 06:05:34;;;;;;;0.40;0.40;;;;;;;10.31;68.24;100201.33;103382;1281;138838;-66
2022/04/26 06:08:02;;;;;;;0.50;0.40;;;;;;;10.26;68.32;100203.27;103730;1277;109661;-66
2022/04/26 06:10:30;;;;;;;0.40;0.40;;;;;;;10.28;68.63;100205.16;103443;1277;138851;-66
2022/04/26 06:12:58;;;;;;;0.40;0.40;;;;;;;10.37;68.60;100206.52;103622;1277;108868;-65
2022/04/26 06:15:26;;;;;;;0.40;0.40;;;;;;;10.47;68.40;100209.27;103518;1278;95694;-65
2022/04/26 06:17:54;;;;;;;0.50;0.40;;;;;;;10.55;68.14;100209.39;103397;1278;138964;-66
2022/04/26 06:20:24;;;;;;;0.40;0.40;;;;;;;10.55;67.75;100210.98;103558;1278;108585;-67
2022/04/26 06:22:53;;;;;;;0.50;0.40;;;;;;;10.49;67.82;100214.71;103523;1277;138840;-65
2022/04/26 06:25:21;;;;;;;0.40;0.40;;;;;;;10.37;68.03;100217.91;103629;1277;109370;-65
2022/04/26 06:27:50;;;;;;;0.40;0.30;;;;;;;10.32;68.13;100218.35;103551;1277;139340;-67
2022/04/26 06:30:23;;;;;;;0.40;0.40;;;;;;;10.26;68.01;100219.77;103644;1277;96897;-67
2022/04/26 06:32:51;;;;;;;0.50;0.40;;;;;;;10.24;68.07;100221.61;103668;1277;109669;-66
2022/04/26 06:35:19;;;;;;;0.50;0.50;;;;;;;10.22;68.45;100220.76;103515;1277;138659;-65
2022/04/26 06:37:47;;;;;;;0.50;0.40;;;;;;;10.24;68.35;100222.48;103653;1278;108814;-67
2022/04/26 06:40:15;;;;;;;0.50;0.40;;;;;;;10.33;68.49;100224.55;103530;1277;139117;-65
2022/04/26 06:42:43;;;;;;;0.50;0.40;;;;;;;10.46;68.20;100227.23;103579;1277;95578;-65
2022/04/26 06:45:11;;;;;;;0.50;0.40;;;;;;;10.48;68.15;100225.05;103597;1277;109722;-65
2022/04/26 06:47:38;;;;;;;0.50;0.40;;;;;;;10.48;67.60;100229.29;103463;1278;138652;-66
2022/04/26 06:50:07;;;;;;;0.40;0.40;;;;;;;10.39;67.52;100228.66;103626;1277;108891;-66
2022/04/26 06:52:35;;;;;;;0.40;0.40;;;;;;;10.41;67.79;100236.26;103542;1278;138648;-65
2022/04/26 06:55:05;;;;;;;0.50;0.40;;;;;;;10.42;67.45;100234.09;103760;1277;95630;-65
2022/04/26 06:57:36;;;;;;;0.40;0.40;;;;;;;10.34;67.79;100240.66;104255;1278;110046;-65
2022/04/26 07:00:09;;;;;;;0.40;0.40;;;;;;;10.31;68.00;100241.45;103475;1278;139646;-65
2022/04/26 07:02:37;;;;;;;0.40;0.40;;;;;;;10.30;68.17;100242.88;104603;1277;108862;-66
2022/04/26 07:05:06;;;;;;;0.40;0.30;;;;;;;10.41;68.42;100246.19;104286;1277;139242;-66
2022/04/26 07:07:34;;;;;;;0.40;0.40;;;;;;;10.51;67.95;100246.23;107165;1277;93469;-66
2022/04/26 07:10:03;;;;;;;0.50;0.40;;;;;;;10.58;67.81;100249.59;104322;1277;139189;-66
2022/04/26 07:12:31;;;;;;;0.40;0.40;;;;;;;10.62;67.90;100252.48;104347;1277;99447;-67
2022/04/26 07:14:59;;;;;;;0.50;0.40;;;;;;;10.71;67.72;100254.20;104436;1277;109026;-66
2022/04/26 07:17:27;;;;;;;0.50;0.40;;;;;;;10.70;67.40;100255.30;104168;1277;138091;-66
2022/04/26 07:19:57;;;;;;;0.40;0.30;;;;;;;10.74;67.67;100257.33;104503;1277;95214;-66
2022/04/26 07:22:30;;;;;;;0.40;0.40;;;;;;;10.70;67.66;100260.28;103724;1277;138462;-66
2022/04/26 07:24:58;;;;;;;0.40;0.40;;;;;;;10.66;67.63;100264.09;104324;1277;99398;-66
2022/04/26 07:27:26;;;;;;;0.40;0.40;;;;;;;10.71;67.83;100267.35;104207;1277;109778;-67
2022/04/26 07:29:54;;;;;;;0.40;0.30;;;;;;;10.68;67.52;100265.13;103544;1281;139412;-67
2022/04/26 07:35:10;;;;;;;0.40;0.30;;;;;;;10.71;67.41;100271.59;104469;1278;138082;-66
2022/04/26 07:37:41;;;;;;;0.40;0.30;;;;;;;10.82;67.83;100276.78;104475;1277;99387;-65
2022/04/26 07:40:10;;;;;;;0.40;0.30;;;;;;;10.99;67.95;100277.52;104342;1277;140030;-66
2022/04/26 07:42:38;;;;;;;0.40;0.30;;;;;;;11.12;67.35;100279.09;104414;1278;96452;-66
2022/04/26 07:45:07;;;;;;;0.40;0.40;;;;;;;11.20;67.26;100281.89;104403;1277;95104;-66
2022/04/26 07:47:35;;;;;;;0.40;0.30;;;;;;;11.35;67.00;100281.42;104385;1277;138325;-66
2022/04/26 07:50:04;;;;;;;0.40;0.30;;;;;;;11.46;66.51;100285.17;104438;1277;98407;-66
2022/04/26 07:52:33;;;;;;;0.40;0.30;;;;;;;11.48;66.33;100286.69;104393;1280;138416;-66
2022/04/26 07:55:01;;;;;;;0.40;0.30;;;;;;;11.49;66.08;100288.09;104190;1277;95554;-66
2022/04/26 07:57:29;;;;;;;0.40;0.40;;;;;;;11.51;66.40;100292.47;104344;1277;95140;-66
2022/04/26 07:59:58;;;;;;;0.40;0.30;;;;;;;11.54;66.00;100296.27;104239;1277;139112;-66
2022/04/26 08:02:26;;;;;;;0.40;0.30;;;;;;;11.61;66.24;100294.10;104409;1277;99266;-66
2022/04/26 08:05:00;;;;;;;0.40;0.30;;;;;;;11.77;66.10;100294.14;104226;1277;138914;-65
2022/04/26 08:07:29;;;;;;;0.40;0.30;;;;;;;11.77;65.58;100296.79;104165;1277;95730;-64
2022/04/26 08:09:57;;;;;;;0.40;0.30;;;;;;;11.62;64.98;100306.52;104293;1281;138988;-65
2022/04/26 08:12:25;;;;;;;0.40;0.30;;;;;;;11.58;65.27;100312.16;103935;1281;109786;-66
2022/04/26 08:14:53;;;;;;;0.40;0.30;;;;;;;11.60;65.53;100312.30;103232;1278;98739;-67
2022/04/26 08:17:20;;;;;;;0.40;0.30;;;;;;;11.56;65.00;100311.16;103226;1280;138508;-66
2022/04/26 08:19:48;;;;;;;0.40;0.30;;;;;;;11.52;65.15;100315.36;104379;1277;95481;-66
2022/04/26 08:22:16;;;;;;;0.40;0.30;;;;;;;11.61;65.49;100319.02;104065;1277;139596;-66
2022/04/26 08:27:33;;;;;;;0.40;0.40;;;;;;;11.53;65.34;100322.62;104228;1276;98174;-65
2022/04/26 08:30:03;;;;;;;0.40;0.40;;;;;;;11.56;64.81;100326.27;104122;1277;138621;-67
2022/04/26 08:32:39;;;;;;;0.40;0.30;;;;;;;11.60;65.02;100326.32;104822;1277;95333;-65
2022/04/26 08:35:10;;;;;;;0.40;0.30;;;;;;;11.66;65.15;100327.01;104481;1277;137504;-65
2022/04/26 08:37:38;;;;;;;0.40;0.30;;;;;;;11.72;65.24;100329.16;104775;1278;109997;-65
2022/04/26 08:40:10;;;;;;;0.40;0.30;;;;;;;11.83;65.34;100329.67;104043;1277;138452;-64
2022/04/26 08:42:44;;;;;;;0.40;0.30;;;;;;;12.01;65.26;100330.89;104471;1277;109510;-67
2022/04/26 08:45:16;;;;;;;0.40;0.30;;;;;;;12.05;64.72;100333.61;103860;1279;95331;-65
2022/04/26 08:53:23;;;;;;;0.40;0.30;;;;;;;12.09;64.27;100339.91;103493;1277;138656;-65
2022/04/26 08:55:54;;;;;;;0.40;0.30;;;;;;;12.09;64.02;100341.31;103545;1277;108772;-65
2022/04/26 08:58:25;;;;;;;0.40;0.30;;;;;;;12.02;64.19;100350.26;104145;1277;138516;-65
2022/04/26 09:01:12;;;;;;;0.40;0.40;;;;;;;12.04;64.40;100348.93;104343;1277;95136;-65
2022/04/26 09:03:55;;;;;;;0.40;0.30;;;;;;;12.05;64.25;100352.30;104107;1277;109657;-66
2022/04/26 09:06:46;;;;;;;0.40;0.30;;;;;;;12.06;64.85;100355.29;104655;1277;138790;-66
2022/04/26 09:09:21;;;;;;;0.40;0.40;;;;;;;12.07;64.27;100350.98;104190;1278;107782;-64
2022/04/26 09:11:50;;;;;;;0.40;0.30;;;;;;;12.04;63.87;100357.11;103598;1277;139253;-67
2022/04/26 09:14:30;;;;;;;0.40;0.30;;;;;;;12.11;64.43;100358.14;103630;1277;95146;-65
2022/04/26 09:17:05;;;;;;;0.40;0.30;;;;;;;12.16;63.80;100358.67;103578;1277;138117;-67
2022/04/26 09:19:46;;;;;;;0.40;0.30;;;;;;;12.00;63.77;100367.59;103818;1278;99541;-66
2022/04/26 09:22:29;;;;;;;0.40;0.30;;;;;;;11.82;64.38;100367.77;103907;1277;139401;-66
2022/04/26 09:24:58;;;;;;;0.50;0.40;;;;;;;11.89;64.81;100370.05;103631;1277;95240;-66
2022/04/26 09:27:27;;;;;;;0.40;0.30;;;;;;;12.01;64.95;100373.08;103623;1276;96375;-65
2022/04/26 09:29:56;;;;;;;0.40;0.30;;;;;;;12.03;64.59;100373.55;103344;1276;138998;-65
2022/04/26 09:32:24;;;;;;;0.40;0.30;;;;;;;12.03;64.38;100373.89;103657;1277;98436;-66
2022/04/26 09:34:52;;;;;;;0.40;0.30;;;;;;;11.98;64.61;100375.14;103343;1277;138490;-66
2022/04/26 09:37:19;;;;;;;0.40;0.30;;;;;;;11.94;64.42;100375.60;103429;1277;95202;-66
2022/04/26 09:40:05;;;;;;;0.40;0.30;;;;;;;11.99;64.48;100376.71;103181;1281;95285;-65
2022/04/26 09:42:35;;;;;;;0.40;0.30;;;;;;;11.99;64.43;100375.43;103596;1277;138687;-65
2022/04/26 09:45:08;;;;;;;0.40;0.30;;;;;;;12.05;64.58;100376.87;103933;1277;100300;-67
2022/04/26 09:47:37;;;;;;;0.40;0.30;;;;;;;12.02;64.09;100378.39;103607;1277;139612;-66
2022/04/26 09:50:10;;;;;;;0.40;0.30;;;;;;;12.11;64.49;100381.10;103349;1277;95871;-66
2022/04/26 09:52:39;;;;;;;0.40;0.30;;;;;;;12.34;64.58;100372.69;103276;1278;138950;-66
2022/04/26 09:55:09;;;;;;;0.40;0.30;;;;;;;12.43;63.44;100370.26;103171;1278;109875;-65
2022/04/26 09:57:38;;;;;;;0.40;0.30;;;;;;;12.48;63.37;100376.30;103363;1278;97384;-66
2022/04/26 10:00:12;;;;;;;0.40;0.30;;;;;;;12.51;63.08;100378.50;103300;1277;138011;-66
2022/04/26 10:02:51;;;;;;;0.40;0.30;;;;;;;12.57;62.90;100379.03;103512;1277;95845;-67
2022/04/26 10:05:21;;;;;;;0.40;0.20;;;;;;;12.72;62.46;100381.55;103387;1277;141471;-65
2022/04/26 10:07:51;;;;;;;0.40;0.30;;;;;;;12.82;62.13;100379.77;103336;1280;107791;-65
2022/04/26 10:10:20;;;;;;;0.40;0.30;;;;;;;12.86;61.85;100382.11;103606;1277;139664;-66
2022/04/26 10:15:36;;;;;;;0.40;0.30;;;;;;;12.68;61.30;100383.27;103561;1277;97066;-67
2022/04/26 10:18:31;;;;;;;0.40;0.30;;;;;;;12.74;61.00;100382.00;103659;1278;138841;-66
2022/04/26 10:21:02;;;;;;;0.40;0.30;;;;;;;12.87;61.42;100382.41;103472;1278;108728;-66
2022/04/26 10:24:06;;;;;;;0.40;0.20;;;;;;;13.02;60.76;100382.05;103396;1277;139680;-66
2022/04/26 10:26:35;;;;;;;0.40;0.30;;;;;;;13.12;59.93;100386.49;103502;1281;108973;-67
2022/04/26 10:29:09;;;;;;;0.40;0.20;;;;;;;13.22;59.37;100389.70;103179;1277;138556;-66
2022/04/26 10:31:39;;;;;;;0.40;0.30;;;;;;;13.30;59.52;100391.91;103253;1277;96855;-67
2022/04/26 10:34:24;;;;;;;0.40;0.20;;;;;;;13.36;58.99;100392.39;103727;1277;109667;-66
2022/04/26 10:37:15;;;;;;;0.40;0.20;;;;;;;13.43;58.54;100395.03;103465;1277;138812;-67
2022/04/26 10:39:46;;;;;;;0.40;0.30;;;;;;;13.43;58.92;100402.51;103458;1278;107827;-65
2022/04/26 10:42:15;;;;;;;0.40;0.20;;;;;;;13.45;58.98;100399.75;103328;1277;139130;-65
2022/04/26 10:44:45;;;;;;;0.40;0.30;;;;;;;13.31;58.83;100398.83;103450;1276;95218;-66
2022/04/26 10:47:14;;;;;;;0.40;0.20;;;;;;;13.24;59.48;100399.08;103484;1277;138664;-66
2022/04/26 10:49:42;;;;;;;0.40;0.20;;;;;;;13.22;59.06;100400.57;103516;1277;99754;-66
2022/04/26 10:52:13;;;;;;;0.40;0.20;;;;;;;13.20;59.09;100401.00;103469;1277;107735;-64
2022/04/26 10:57:23;;;;;;;0.40;0.20;;;;;;;13.40;58.78;100396.73;103528;1277;96025;-66
2022/04/26 10:59:59;;;;;;;0.40;0.20;;;;;;;13.51;57.89;100400.42;103448;1277;138084;-67
2022/04/26 11:02:35;;;;;;;0.40;0.30;;;;;;;13.51;57.80;100397.55;103661;1278;99444;-66
2022/04/26 11:05:14;;;;;;;0.40;0.20;;;;;;;13.66;58.06;100393.41;103397;1277;138616;-65
2022/04/26 11:07:44;;;;;;;0.40;0.30;;;;;;;13.78;57.87;100395.44;103600;1277;95281;-66
2022/04/26 11:10:13;;;;;;;0.40;0.30;;;;;;;13.78;57.22;100392.58;103974;1277;95812;-66
2022/04/26 11:12:41;;;;;;;0.40;0.30;;;;;;;13.70;57.09;100400.40;103389;1278;138085;-65
2022/04/26 11:15:15;;;;;;;0.40;0.20;;;;;;;13.71;57.34;100395.54;103453;1277;99896;-65
2022/04/26 11:17:43;;;;;;;0.40;0.20;;;;;;;13.72;57.57;100393.01;103377;1277;138617;-65
2022/04/26 11:20:35;;;;;;;0.40;0.30;;;;;;;13.66;57.29;100396.79;103635;1277;95650;-65
2022/04/26 11:27:59;;;;;;;0.40;0.30;;;;;;;13.74;58.10;100398.07;103509;1278;139121;-66
2022/04/26 11:28:37;;;;;;;0.40;0.20;;;;;;;13.94;57.17;100403.54;103548;1277;139425;-64
2022/04/26 11:31:05;;;;;;;0.40;0.20;;;;;;;14.05;56.48;100400.95;103527;1277;109022;-65
2022/04/26 11:33:33;;;;;;;0.40;0.30;;;;;;;14.03;56.84;100403.54;103387;1277;95252;-66
2022/04/26 11:36:02;;;;;;;0.40;0.30;;;;;;;14.00;56.36;100406.52;103168;1277;138233;-64
2022/04/26 11:38:30;;;;;;;0.40;0.20;;;;;;;13.92;56.53;100406.13;103373;1277;108618;-66
2022/04/26 11:41:00;;;;;;;0.40;0.30;;;;;;;13.97;56.96;100402.54;103298;1277;138925;-65
2022/04/26 11:43:31;;;;;;;0.40;0.20;;;;;;;14.06;56.61;100402.86;103663;1277;108772;-65
2022/04/26 11:46:00;;;;;;;0.40;0.20;;;;;;;14.14;56.00;100403.98;103415;1277;96042;-66
2022/04/26 11:48:34;;;;;;;0.40;0.20;;;;;;;14.12;55.13;100409.59;103889;1277;138639;-66
2022/04/26 11:51:03;;;;;;;0.40;0.20;;;;;;;14.14;54.62;100409.53;103601;1277;110336;-66
2022/04/26 11:53:32;;;;;;;0.40;0.20;;;;;;;14.23;55.97;100405.08;103534;1277;138703;-65
2022/04/26 11:56:06;;;;;;;0.40;0.20;;;;;;;14.40;55.62;100405.05;103350;1277;108823;-65
2022/04/26 11:58:39;;;;;;;0.40;0.20;;;;;;;14.46;54.90;100406.04;103781;1276;139080;-65
2022/04/26 12:01:11;;;;;;;0.40;0.20;;;;;;;14.49;53.90;100405.55;103526;1276;95215;-64
2022/04/26 12:03:49;;;;;;;0.40;0.20;;;;;;;14.50;53.99;100404.48;103542;1278;110298;-65
2022/04/26 12:06:31;;;;;;;0.40;0.20;;;;;;;14.48;53.93;100401.89;104395;1278;138951;-65
2022/04/26 12:09:02;;;;;;;0.40;0.20;;;;;;;14.52;53.55;100405.79;103663;1277;108439;-65
2022/04/26 12:11:35;;;;;;;0.40;0.20;;;;;;;14.52;53.36;100402.21;103938;1277;138518;-65
2022/04/26 12:14:03;;;;;;;0.40;0.20;;;;;;;14.62;52.71;100403.61;103796;1277;95255;-65
2022/04/26 12:16:36;;;;;;;0.40;0.30;;;;;;;14.62;52.23;100400.91;103247;1277;137780;-66
2022/04/26 12:19:04;;;;;;;0.40;0.20;;;;;;;14.58;52.07;100402.88;103491;1277;99499;-66
2022/04/26 12:21:51;;;;;;;0.40;0.20;;;;;;;14.67;52.17;100401.80;103616;1276;107789;-66
2022/04/26 12:24:25;;;;;;;0.40;0.20;;;;;;;14.79;52.75;100400.77;103462;1277;138848;-65
2022/04/26 12:26:58;;;;;;;0.40;0.20;;;;;;;14.90;52.33;100400.27;103826;1277;95729;-64
2022/04/26 12:29:29;;;;;;;0.40;0.20;;;;;;;14.98;52.19;100402.98;103771;1277;138317;-66
2022/04/26 12:31:58;;;;;;;0.40;0.20;;;;;;;14.99;51.83;100399.34;103939;1277;99484;-66
2022/04/26 12:34:31;;;;;;;0.40;0.20;;;;;;;15.00;52.00;100398.02;103710;1277;109336;-65
2022/04/26 12:37:00;;;;;;;0.40;0.20;;;;;;;15.07;51.07;100398.97;103923;1278;138508;-66
2022/04/26 12:39:40;;;;;;;0.40;0.20;;;;;;;14.92;51.20;100402.48;103886;1277;95428;-65
2022/04/26 12:42:10;;;;;;;0.40;0.20;;;;;;;14.94;51.27;100400.08;103549;1277;138109;-65
2022/04/26 12:44:52;;;;;;;0.40;0.20;;;;;;;14.93;51.91;100401.40;103702;1277;98918;-67
2022/04/26 12:50:35;;;;;;;0.40;0.20;;;;;;;14.91;51.35;100402.73;104059;1277;95249;-65
2022/04/26 12:53:07;;;;;;;0.40;0.20;;;;;;;14.88;50.84;100404.48;103772;1276;138570;-65
2022/04/26 12:55:38;;;;;;;0.40;0.20;;;;;;;14.96;51.31;100401.61;103909;1277;109936;-65
2022/04/26 12:58:11;;;;;;;0.40;0.20;;;;;;;15.02;51.83;100395.96;104629;1276;99633;-65
2022/04/26 13:00:44;;;;;;;0.40;0.20;;;;;;;15.05;51.20;100395.14;104123;1277;138356;-65
2022/04/26 13:03:13;;;;;;;0.40;0.20;;;;;;;14.92;51.08;100393.59;103870;1279;95272;-65
2022/04/26 13:05:46;;;;;;;0.40;0.20;;;;;;;14.97;51.39;100392.78;103925;1277;138162;-65
2022/04/26 13:08:15;;;;;;;0.40;0.20;;;;;;;15.04;51.36;100394.30;103928;1278;109777;-65
2022/04/26 13:10:44;;;;;;;0.40;0.30;;;;;;;15.03;50.89;100388.95;103888;1277;138728;-64
2022/04/26 13:13:12;;;;;;;0.40;0.20;;;;;;;14.98;50.52;100389.90;104053;1277;108400;-66
2022/04/26 13:15:41;;;;;;;0.40;0.20;;;;;;;14.95;50.71;100388.80;104132;1277;96798;-66
2022/04/26 13:18:10;;;;;;;0.40;0.20;;;;;;;14.93;50.67;100389.06;103915;1277;138553;-64
2022/04/26 13:20:39;;;;;;;0.40;0.20;;;;;;;14.83;50.19;100386.65;103940;1277;109889;-65
2022/04/26 13:23:16;;;;;;;0.40;0.20;;;;;;;14.79;50.41;100384.69;103561;1278;139004;-64
2022/04/26 13:25:44;;;;;;;0.40;0.20;;;;;;;14.79;50.43;100387.19;103770;1277;108662;-65
2022/04/26 13:28:12;;;;;;;0.40;0.20;;;;;;;14.80;50.41;100388.89;103663;1277;95457;-66
2022/04/26 13:30:41;;;;;;;0.40;0.20;;;;;;;14.86;50.57;100389.17;103402;1276;138139;-66
2022/04/26 13:33:09;;;;;;;0.40;0.20;;;;;;;14.88;50.34;100393.91;103904;1276;109698;-65
2022/04/26 13:35:39;;;;;;;0.40;0.20;;;;;;;14.80;49.97;100394.11;103303;1276;138371;-65
2022/04/26 13:38:12;;;;;;;0.40;0.20;;;;;;;14.79;50.40;100392.88;103420;1276;109170;-64
2022/04/26 13:40:41;;;;;;;0.40;0.20;;;;;;;14.72;49.28;100397.66;103629;1276;140448;-65
2022/04/26 13:43:09;;;;;;;0.40;0.20;;;;;;;14.72;49.73;100399.97;103331;1279;95689;-66
2022/04/26 13:45:39;;;;;;;0.40;0.20;;;;;;;14.83;49.72;100398.27;103815;1277;109647;-65
2022/04/26 13:48:11;;;;;;;0.40;0.20;;;;;;;14.88;50.14;100397.13;103302;1277;138290;-65
2022/04/26 13:50:39;;;;;;;0.40;0.20;;;;;;;14.89;49.48;100399.42;103295;1277;108842;-66
2022/04/26 13:53:07;;;;;;;0.40;0.20;;;;;;;14.76;49.74;100397.64;103335;1276;138731;-66
2022/04/26 13:55:35;;;;;;;0.40;0.20;;;;;;;14.73;50.27;100401.00;103373;1277;96931;-67
2022/04/26 13:58:08;;;;;;;0.40;0.20;;;;;;;14.73;49.41;100399.77;103773;1276;109015;-65
2022/04/26 14:00:36;;;;;;;0.40;0.20;;;;;;;14.70;49.64;100400.98;103421;1277;138486;-65
2022/04/26 14:03:06;;;;;;;0.40;0.20;;;;;;;14.69;49.52;100404.21;104114;1277;108895;-67
2022/04/26 14:05:34;;;;;;;0.40;0.20;;;;;;;14.64;49.70;100406.20;103662;1277;138979;-65
2022/04/26 14:08:07;;;;;;;0.40;0.20;;;;;;;14.64;49.84;100405.66;103553;1277;95843;-66
2022/04/26 14:10:35;;;;;;;0.40;0.20;;;;;;;14.68;49.47;100403.91;103155;1277;138471;-65
2022/04/26 14:13:04;;;;;;;0.40;0.30;;;;;;;14.66;49.85;100404.14;103249;1277;99437;-66
2022/04/26 14:21:47;;;;;;;0.40;0.20;;;;;;;14.75;49.82;100404.14;103353;1277;138379;-65
2022/04/26 14:24:07;;;;;;;0.40;0.20;;;;;;;14.86;49.16;100401.16;103251;1277;138295;-63
2022/04/26 14:26:37;;;;;;;0.40;0.30;;;;;;;14.85;49.47;100402.42;104771;1277;99422;-64
2022/04/26 14:29:05;;;;;;;0.40;0.20;;;;;;;14.79;49.49;100404.14;103679;1277;138705;-65
2022/04/26 14:31:33;;;;;;;0.40;0.20;;;;;;;14.73;49.41;100403.34;103617;1277;96485;-63
2022/04/26 14:34:01;;;;;;;0.40;0.20;;;;;;;14.77;50.06;100404.41;103401;1278;95734;-63
2022/04/26 14:36:29;;;;;;;0.40;0.20;;;;;;;14.83;49.66;100400.55;103404;1277;138933;-63
2022/04/26 14:39:17;;;;;;;0.40;0.20;;;;;;;14.83;49.41;100399.46;103546;1277;99469;-63
2022/04/26 14:41:45;;;;;;;0.40;0.20;;;;;;;14.86;49.02;100398.81;103403;1276;137273;-63
2022/04/26 14:44:13;;;;;;;0.40;0.20;;;;;;;14.84;49.19;100402.31;103533;1276;96380;-64
2022/04/26 14:46:40;;;;;;;0.40;0.20;;;;;;;14.81;49.18;100401.04;103590;1276;138845;-63
2022/04/26 14:49:08;;;;;;;0.40;0.20;;;;;;;14.81;49.74;100404.39;103779;1276;109916;-65
2022/04/26 14:51:37;;;;;;;0.40;0.20;;;;;;;14.87;49.81;100404.68;103621;1277;99454;-65
2022/04/26 14:54:05;;;;;;;0.40;0.20;;;;;;;14.79;49.18;100402.92;103545;1277;138665;-65
2022/04/26 14:56:33;;;;;;;0.40;0.20;;;;;;;14.70;49.47;100404.34;103617;1276;95239;-66
2022/04/26 14:59:22;;;;;;;0.40;0.20;;;;;;;14.65;49.55;100407.79;103514;1277;138020;-65
2022/04/26 15:01:50;;;;;;;0.40;0.20;;;;;;;14.51;49.31;100405.82;103666;1278;109047;-65
2022/04/26 15:04:20;;;;;;;0.40;0.20;;;;;;;14.47;49.70;100403.52;103545;1277;99257;-65
2022/04/26 15:06:49;;;;;;;0.40;0.20;;;;;;;14.46;49.71;100405.88;103528;1278;138357;-64
2022/04/26 15:17:39;;;;;;;0.40;0.30;;;;;;;14.27;50.56;100415.59;103683;1277;138348;-64
2022/04/26 15:20:07;;;;;;;0.40;0.20;;;;;;;14.22;50.50;100415.65;103781;1277;108812;-65
2022/04/26 15:22:38;;;;;;;0.40;0.20;;;;;;;14.19;50.88;100417.88;104041;1277;138456;-63
2022/04/26 15:25:08;;;;;;;0.40;0.30;;;;;;;14.18;51.02;100418.64;103712;1277;95173;-64
2022/04/26 15:27:40;;;;;;;0.40;0.20;;;;;;;14.12;50.60;100419.41;104214;1277;110105;-63
2022/04/26 15:30:10;;;;;;;0.40;0.30;;;;;;;14.07;50.95;100419.08;103536;1278;138426;-64
2022/04/26 15:32:38;;;;;;;0.40;0.20;;;;;;;14.07;51.24;100423.58;103952;1277;108784;-65
2022/04/26 15:35:09;;;;;;;0.40;0.20;;;;;;;14.07;51.02;100422.11;103972;1277;138551;-64
2022/04/26 15:37:36;;;;;;;0.40;0.20;;;;;;;14.04;51.04;100426.67;103922;1277;96100;-64
2022/04/26 15:40:05;;;;;;;0.40;0.30;;;;;;;14.05;51.22;100424.69;103837;1277;109867;-64
2022/04/26 15:42:34;;;;;;;0.40;0.30;;;;;;;14.07;51.27;100424.61;103808;1277;138802;-64
2022/04/26 15:45:02;;;;;;;0.40;0.30;;;;;;;14.06;51.11;100427.35;103724;1277;109400;-65